sensor_id;sensor_type;location;lat;lon;timestamp;P1;durP1;ratioP1;P2;durP2;ratioP2
65835;SDS011;52595;51.608;7.216;2023-12-20T00:02:20;41.10;;;16.23;;
65835;SDS011;52595;51.608;7.216;2023-12-20T00:04:46;40.17;;;15.20;;
65835;SDS011;52595;51.608;7.216;2023-12-20T00:07:12;38.60;;;14.82;;
65835;SDS011;52595;51.608;7.216;2023-12-20T00:09:37;40.17;;;14.77;;
65835;SDS011;52595;51.608;7.216;2023-12-20T00:12:03;41.67;;;15.45;;
65835;SDS011;52595;51.608;7.216;2023-12-20T00:14:28;41.60;;;16.30;;
65835;SDS011;52595;51.608;7.216;2023-12-20T00:16:54;32.50;;;12.52;;
65835;SDS011;52595;51.608;7.216;2023-12-20T00:19:21;36.78;;;13.50;;
65835;SDS011;52595;51.608;7.216;2023-12-20T00:21:55;25.13;;;9.82;;
65835;SDS011;52595;51.608;7.216;2023-12-20T00:24:20;30.08;;;11.63;;
65835;SDS011;52595;51.608;7.216;2023-12-20T00:26:51;28.50;;;11.05;;
65835;SDS011;52595;51.608;7.216;2023-12-20T00:29:16;26.52;;;10.65;;
65835;SDS011;52595;51.608;7.216;2023-12-20T00:31:42;24.38;;;10.40;;
65835;SDS011;52595;51.608;7.216;2023-12-20T00:34:08;21.58;;;7.85;;
65835;SDS011;52595;51.608;7.216;2023-12-20T00:36:33;22.95;;;9.30;;
65835;SDS011;52595;51.608;7.216;2023-12-20T00:38:59;23.10;;;9.35;;
65835;SDS011;52595;51.608;7.216;2023-12-20T00:41:25;20.08;;;8.38;;
65835;SDS011;52595;51.608;7.216;2023-12-20T00:43:50;23.73;;;8.00;;
65835;SDS011;52595;51.608;7.216;2023-12-20T00:46:16;16.92;;;7.50;;
65835;SDS011;52595;51.608;7.216;2023-12-20T00:48:41;19.65;;;8.25;;
65835;SDS011;52595;51.608;7.216;2023-12-20T00:51:07;24.52;;;8.65;;
65835;SDS011;52595;51.608;7.216;2023-12-20T00:53:33;21.15;;;8.18;;
65835;SDS011;52595;51.608;7.216;2023-12-20T00:55:58;20.58;;;8.55;;
65835;SDS011;52595;51.608;7.216;2023-12-20T00:58:23;20.48;;;8.73;;
65835;SDS011;52595;51.608;7.216;2023-12-20T01:00:49;22.55;;;8.50;;
65835;SDS011;52595;51.608;7.216;2023-12-20T01:03:14;18.33;;;7.40;;
65835;SDS011;52595;51.608;7.216;2023-12-20T01:05:40;23.55;;;8.30;;
65835;SDS011;52595;51.608;7.216;2023-12-20T01:08:05;17.98;;;7.82;;
65835;SDS011;52595;51.608;7.216;2023-12-20T01:10:31;21.63;;;7.28;;
65835;SDS011;52595;51.608;7.216;2023-12-20T01:12:57;17.73;;;6.95;;
65835;SDS011;52595;51.608;7.216;2023-12-20T01:15:22;20.50;;;6.03;;
65835;SDS011;52595;51.608;7.216;2023-12-20T01:17:48;18.85;;;7.25;;
65835;SDS011;52595;51.608;7.216;2023-12-20T01:20:14;16.15;;;6.40;;
65835;SDS011;52595;51.608;7.216;2023-12-20T01:22:39;17.92;;;6.20;;
65835;SDS011;52595;51.608;7.216;2023-12-20T01:25:05;13.85;;;6.28;;
65835;SDS011;52595;51.608;7.216;2023-12-20T01:27:33;18.33;;;6.38;;
65835;SDS011;52595;51.608;7.216;2023-12-20T01:29:59;14.98;;;4.95;;
65835;SDS011;52595;51.608;7.216;2023-12-20T01:32:24;14.52;;;5.45;;
65835;SDS011;52595;51.608;7.216;2023-12-20T01:34:49;22.35;;;6.93;;
65835;SDS011;52595;51.608;7.216;2023-12-20T01:37:15;21.42;;;6.13;;
65835;SDS011;52595;51.608;7.216;2023-12-20T01:39:40;17.95;;;6.40;;
65835;SDS011;52595;51.608;7.216;2023-12-20T01:42:06;14.63;;;6.07;;
65835;SDS011;52595;51.608;7.216;2023-12-20T01:44:31;13.02;;;5.53;;
65835;SDS011;52595;51.608;7.216;2023-12-20T01:46:56;14.98;;;4.78;;
65835;SDS011;52595;51.608;7.216;2023-12-20T01:49:22;17.60;;;6.30;;
65835;SDS011;52595;51.608;7.216;2023-12-20T01:51:48;12.60;;;5.45;;
65835;SDS011;52595;51.608;7.216;2023-12-20T01:54:13;14.75;;;5.30;;
65835;SDS011;52595;51.608;7.216;2023-12-20T01:56:39;20.70;;;5.80;;
65835;SDS011;52595;51.608;7.216;2023-12-20T01:59:05;15.35;;;5.43;;
65835;SDS011;52595;51.608;7.216;2023-12-20T02:01:31;14.52;;;4.72;;
65835;SDS011;52595;51.608;7.216;2023-12-20T02:03:57;18.98;;;6.07;;
65835;SDS011;52595;51.608;7.216;2023-12-20T02:06:24;17.45;;;5.60;;
65835;SDS011;52595;51.608;7.216;2023-12-20T02:08:54;17.58;;;6.25;;
65835;SDS011;52595;51.608;7.216;2023-12-20T02:11:19;11.05;;;4.72;;
65835;SDS011;52595;51.608;7.216;2023-12-20T02:13:46;17.45;;;5.38;;
65835;SDS011;52595;51.608;7.216;2023-12-20T02:16:11;18.73;;;5.40;;
65835;SDS011;52595;51.608;7.216;2023-12-20T02:18:37;16.25;;;5.78;;
65835;SDS011;52595;51.608;7.216;2023-12-20T02:21:04;8.65;;;4.10;;
65835;SDS011;52595;51.608;7.216;2023-12-20T02:23:30;15.55;;;6.32;;
65835;SDS011;52595;51.608;7.216;2023-12-20T02:25:57;18.67;;;6.13;;
65835;SDS011;52595;51.608;7.216;2023-12-20T02:28:22;15.10;;;5.53;;
65835;SDS011;52595;51.608;7.216;2023-12-20T02:30:48;15.00;;;5.18;;
65835;SDS011;52595;51.608;7.216;2023-12-20T02:33:14;11.90;;;4.85;;
65835;SDS011;52595;51.608;7.216;2023-12-20T02:35:40;13.38;;;4.60;;
65835;SDS011;52595;51.608;7.216;2023-12-20T02:38:06;12.60;;;4.65;;
65835;SDS011;52595;51.608;7.216;2023-12-20T02:40:31;14.07;;;5.40;;
65835;SDS011;52595;51.608;7.216;2023-12-20T02:42:57;11.45;;;4.60;;
65835;SDS011;52595;51.608;7.216;2023-12-20T02:45:22;16.55;;;4.97;;
65835;SDS011;52595;51.608;7.216;2023-12-20T02:47:48;11.40;;;4.53;;
65835;SDS011;52595;51.608;7.216;2023-12-20T02:50:17;16.83;;;5.15;;
65835;SDS011;52595;51.608;7.216;2023-12-20T02:52:44;7.72;;;3.95;;
65835;SDS011;52595;51.608;7.216;2023-12-20T02:55:10;17.70;;;5.00;;
65835;SDS011;52595;51.608;7.216;2023-12-20T02:57:36;13.32;;;4.70;;
65835;SDS011;52595;51.608;7.216;2023-12-20T03:00:01;18.08;;;5.60;;
65835;SDS011;52595;51.608;7.216;2023-12-20T03:02:27;15.68;;;5.50;;
65835;SDS011;52595;51.608;7.216;2023-12-20T03:04:52;15.07;;;5.32;;
65835;SDS011;52595;51.608;7.216;2023-12-20T03:07:18;21.10;;;4.70;;
65835;SDS011;52595;51.608;7.216;2023-12-20T03:09:43;15.52;;;5.60;;
65835;SDS011;52595;51.608;7.216;2023-12-20T03:12:08;17.73;;;5.28;;
65835;SDS011;52595;51.608;7.216;2023-12-20T03:14:34;8.68;;;4.35;;
65835;SDS011;52595;51.608;7.216;2023-12-20T03:16:59;16.30;;;5.22;;
65835;SDS011;52595;51.608;7.216;2023-12-20T03:19:27;23.48;;;5.35;;
65835;SDS011;52595;51.608;7.216;2023-12-20T03:21:54;21.10;;;6.22;;
65835;SDS011;52595;51.608;7.216;2023-12-20T03:24:19;15.60;;;6.22;;
65835;SDS011;52595;51.608;7.216;2023-12-20T03:26:44;13.32;;;4.50;;
65835;SDS011;52595;51.608;7.216;2023-12-20T03:29:10;17.85;;;5.80;;
65835;SDS011;52595;51.608;7.216;2023-12-20T03:31:35;12.18;;;4.85;;
65835;SDS011;52595;51.608;7.216;2023-12-20T03:34:00;12.32;;;5.97;;
65835;SDS011;52595;51.608;7.216;2023-12-20T03:36:26;10.90;;;4.55;;
65835;SDS011;52595;51.608;7.216;2023-12-20T03:38:51;22.35;;;7.28;;
65835;SDS011;52595;51.608;7.216;2023-12-20T03:41:16;22.40;;;6.57;;
65835;SDS011;52595;51.608;7.216;2023-12-20T03:43:42;22.52;;;7.68;;
65835;SDS011;52595;51.608;7.216;2023-12-20T03:46:10;21.88;;;7.10;;
65835;SDS011;52595;51.608;7.216;2023-12-20T03:48:35;19.42;;;6.80;;
65835;SDS011;52595;51.608;7.216;2023-12-20T03:51:01;18.30;;;6.80;;
65835;SDS011;52595;51.608;7.216;2023-12-20T03:53:26;11.80;;;6.03;;
65835;SDS011;52595;51.608;7.216;2023-12-20T03:55:51;18.77;;;7.13;;
65835;SDS011;52595;51.608;7.216;2023-12-20T03:58:17;24.75;;;7.53;;
65835;SDS011;52595;51.608;7.216;2023-12-20T04:00:42;16.60;;;6.45;;
65835;SDS011;52595;51.608;7.216;2023-12-20T04:03:08;17.73;;;6.25;;
65835;SDS011;52595;51.608;7.216;2023-12-20T04:05:33;18.50;;;5.70;;
65835;SDS011;52595;51.608;7.216;2023-12-20T04:07:59;18.13;;;4.68;;
65835;SDS011;52595;51.608;7.216;2023-12-20T04:10:26;13.10;;;4.93;;
65835;SDS011;52595;51.608;7.216;2023-12-20T04:12:51;13.32;;;4.95;;
65835;SDS011;52595;51.608;7.216;2023-12-20T04:15:17;15.30;;;4.78;;
65835;SDS011;52595;51.608;7.216;2023-12-20T04:17:42;15.20;;;4.80;;
65835;SDS011;52595;51.608;7.216;2023-12-20T04:20:08;13.85;;;5.03;;
65835;SDS011;52595;51.608;7.216;2023-12-20T04:22:36;16.27;;;5.50;;
65835;SDS011;52595;51.608;7.216;2023-12-20T04:25:01;11.32;;;4.05;;
65835;SDS011;52595;51.608;7.216;2023-12-20T04:27:27;10.68;;;3.72;;
65835;SDS011;52595;51.608;7.216;2023-12-20T04:29:52;17.52;;;4.88;;
65835;SDS011;52595;51.608;7.216;2023-12-20T04:32:18;12.60;;;4.75;;
65835;SDS011;52595;51.608;7.216;2023-12-20T04:34:43;14.30;;;4.60;;
65835;SDS011;52595;51.608;7.216;2023-12-20T04:37:08;24.85;;;5.50;;
65835;SDS011;52595;51.608;7.216;2023-12-20T04:39:34;13.88;;;5.00;;
65835;SDS011;52595;51.608;7.216;2023-12-20T04:41:59;17.17;;;4.78;;
65835;SDS011;52595;51.608;7.216;2023-12-20T04:44:25;23.02;;;5.93;;
65835;SDS011;52595;51.608;7.216;2023-12-20T04:46:51;10.60;;;4.03;;
65835;SDS011;52595;51.608;7.216;2023-12-20T04:49:17;9.77;;;3.97;;
65835;SDS011;52595;51.608;7.216;2023-12-20T04:51:42;12.98;;;4.60;;
65835;SDS011;52595;51.608;7.216;2023-12-20T04:54:07;19.50;;;6.07;;
65835;SDS011;52595;51.608;7.216;2023-12-20T04:56:33;13.73;;;5.35;;
65835;SDS011;52595;51.608;7.216;2023-12-20T04:58:58;19.20;;;5.38;;
65835;SDS011;52595;51.608;7.216;2023-12-20T05:01:23;8.38;;;3.95;;
65835;SDS011;52595;51.608;7.216;2023-12-20T05:03:49;13.88;;;3.63;;
65835;SDS011;52595;51.608;7.216;2023-12-20T05:06:14;16.63;;;4.65;;
65835;SDS011;52595;51.608;7.216;2023-12-20T05:08:40;9.57;;;3.97;;
65835;SDS011;52595;51.608;7.216;2023-12-20T05:11:05;11.68;;;3.70;;
65835;SDS011;52595;51.608;7.216;2023-12-20T05:13:31;10.93;;;4.05;;
65835;SDS011;52595;51.608;7.216;2023-12-20T05:15:56;10.65;;;3.25;;
65835;SDS011;52595;51.608;7.216;2023-12-20T05:18:22;16.23;;;4.35;;
65835;SDS011;52595;51.608;7.216;2023-12-20T05:20:48;11.30;;;3.83;;
65835;SDS011;52595;51.608;7.216;2023-12-20T05:23:14;19.35;;;4.40;;
65835;SDS011;52595;51.608;7.216;2023-12-20T05:25:40;11.23;;;3.92;;
65835;SDS011;52595;51.608;7.216;2023-12-20T05:28:05;9.52;;;4.20;;
65835;SDS011;52595;51.608;7.216;2023-12-20T05:30:31;12.80;;;3.72;;
65835;SDS011;52595;51.608;7.216;2023-12-20T05:32:56;9.80;;;3.42;;
65835;SDS011;52595;51.608;7.216;2023-12-20T05:35:22;15.43;;;4.57;;
65835;SDS011;52595;51.608;7.216;2023-12-20T05:37:48;11.90;;;4.78;;
65835;SDS011;52595;51.608;7.216;2023-12-20T05:40:14;21.27;;;5.60;;
65835;SDS011;52595;51.608;7.216;2023-12-20T05:42:39;13.27;;;4.38;;
65835;SDS011;52595;51.608;7.216;2023-12-20T05:45:05;14.23;;;5.10;;
65835;SDS011;52595;51.608;7.216;2023-12-20T05:47:31;17.33;;;5.22;;
65835;SDS011;52595;51.608;7.216;2023-12-20T05:49:56;14.30;;;4.20;;
65835;SDS011;52595;51.608;7.216;2023-12-20T05:52:21;17.80;;;4.85;;
65835;SDS011;52595;51.608;7.216;2023-12-20T05:54:47;18.77;;;4.57;;
65835;SDS011;52595;51.608;7.216;2023-12-20T05:57:13;14.32;;;4.40;;
65835;SDS011;52595;51.608;7.216;2023-12-20T05:59:38;14.57;;;4.55;;
65835;SDS011;52595;51.608;7.216;2023-12-20T06:02:03;17.45;;;5.07;;
65835;SDS011;52595;51.608;7.216;2023-12-20T06:04:29;14.45;;;5.40;;
65835;SDS011;52595;51.608;7.216;2023-12-20T06:06:55;22.52;;;6.93;;
65835;SDS011;52595;51.608;7.216;2023-12-20T06:09:20;19.77;;;7.00;;
65835;SDS011;52595;51.608;7.216;2023-12-20T06:11:46;17.88;;;5.88;;
65835;SDS011;52595;51.608;7.216;2023-12-20T06:14:11;19.58;;;6.78;;
65835;SDS011;52595;51.608;7.216;2023-12-20T06:16:36;24.00;;;6.88;;
65835;SDS011;52595;51.608;7.216;2023-12-20T06:19:02;15.18;;;6.25;;
65835;SDS011;52595;51.608;7.216;2023-12-20T06:21:27;13.88;;;5.40;;
65835;SDS011;52595;51.608;7.216;2023-12-20T06:23:52;14.15;;;6.55;;
65835;SDS011;52595;51.608;7.216;2023-12-20T06:26:18;15.88;;;6.03;;
65835;SDS011;52595;51.608;7.216;2023-12-20T06:28:43;14.30;;;6.00;;
65835;SDS011;52595;51.608;7.216;2023-12-20T06:31:09;20.52;;;6.72;;
65835;SDS011;52595;51.608;7.216;2023-12-20T06:33:34;17.20;;;7.28;;
65835;SDS011;52595;51.608;7.216;2023-12-20T06:35:59;19.15;;;5.72;;
65835;SDS011;52595;51.608;7.216;2023-12-20T06:38:26;20.17;;;5.95;;
65835;SDS011;52595;51.608;7.216;2023-12-20T06:40:51;21.85;;;8.40;;
65835;SDS011;52595;51.608;7.216;2023-12-20T06:43:16;15.30;;;6.40;;
65835;SDS011;52595;51.608;7.216;2023-12-20T06:45:42;17.55;;;5.70;;
65835;SDS011;52595;51.608;7.216;2023-12-20T06:48:07;20.88;;;7.45;;
65835;SDS011;52595;51.608;7.216;2023-12-20T06:50:32;23.05;;;7.43;;
65835;SDS011;52595;51.608;7.216;2023-12-20T06:52:58;18.10;;;6.95;;
65835;SDS011;52595;51.608;7.216;2023-12-20T06:55:23;18.98;;;6.70;;
65835;SDS011;52595;51.608;7.216;2023-12-20T06:57:49;17.73;;;7.05;;
65835;SDS011;52595;51.608;7.216;2023-12-20T07:00:14;17.45;;;7.13;;
65835;SDS011;52595;51.608;7.216;2023-12-20T07:02:40;12.73;;;6.10;;
65835;SDS011;52595;51.608;7.216;2023-12-20T07:05:05;15.85;;;6.35;;
65835;SDS011;52595;51.608;7.216;2023-12-20T07:07:31;13.85;;;6.03;;
65835;SDS011;52595;51.608;7.216;2023-12-20T07:09:56;19.38;;;6.22;;
65835;SDS011;52595;51.608;7.216;2023-12-20T07:12:22;25.00;;;7.10;;
65835;SDS011;52595;51.608;7.216;2023-12-20T07:14:47;14.55;;;6.20;;
65835;SDS011;52595;51.608;7.216;2023-12-20T07:17:13;22.27;;;6.25;;
65835;SDS011;52595;51.608;7.216;2023-12-20T07:19:40;13.82;;;5.93;;
65835;SDS011;52595;51.608;7.216;2023-12-20T07:22:06;9.75;;;4.78;;
65835;SDS011;52595;51.608;7.216;2023-12-20T07:24:32;16.45;;;6.47;;
65835;SDS011;52595;51.608;7.216;2023-12-20T07:26:57;18.42;;;7.68;;
65835;SDS011;52595;51.608;7.216;2023-12-20T07:29:24;17.00;;;7.03;;
65835;SDS011;52595;51.608;7.216;2023-12-20T07:31:49;16.80;;;7.03;;
65835;SDS011;52595;51.608;7.216;2023-12-20T07:34:17;14.15;;;5.53;;
65835;SDS011;52595;51.608;7.216;2023-12-20T07:36:42;17.80;;;6.93;;
65835;SDS011;52595;51.608;7.216;2023-12-20T07:39:07;23.88;;;7.55;;
65835;SDS011;52595;51.608;7.216;2023-12-20T07:41:33;13.15;;;5.72;;
65835;SDS011;52595;51.608;7.216;2023-12-20T07:43:58;22.73;;;6.32;;
65835;SDS011;52595;51.608;7.216;2023-12-20T07:46:24;21.75;;;5.78;;
65835;SDS011;52595;51.608;7.216;2023-12-20T07:48:49;13.57;;;5.20;;
65835;SDS011;52595;51.608;7.216;2023-12-20T07:51:14;16.13;;;5.50;;
65835;SDS011;52595;51.608;7.216;2023-12-20T07:53:40;20.17;;;6.32;;
65835;SDS011;52595;51.608;7.216;2023-12-20T07:56:15;10.77;;;4.88;;
65835;SDS011;52595;51.608;7.216;2023-12-20T07:58:44;21.80;;;6.20;;
65835;SDS011;52595;51.608;7.216;2023-12-20T08:01:11;15.77;;;4.43;;
65835;SDS011;52595;51.608;7.216;2023-12-20T08:03:37;15.20;;;4.38;;
65835;SDS011;52595;51.608;7.216;2023-12-20T08:06:02;16.30;;;5.53;;
65835;SDS011;52595;51.608;7.216;2023-12-20T08:08:28;16.52;;;5.43;;
65835;SDS011;52595;51.608;7.216;2023-12-20T08:10:53;15.82;;;4.10;;
65835;SDS011;52595;51.608;7.216;2023-12-20T08:13:19;20.90;;;5.07;;
65835;SDS011;52595;51.608;7.216;2023-12-20T08:15:44;13.65;;;5.55;;
65835;SDS011;52595;51.608;7.216;2023-12-20T08:18:09;16.08;;;4.28;;
65835;SDS011;52595;51.608;7.216;2023-12-20T08:20:35;14.63;;;5.28;;
65835;SDS011;52595;51.608;7.216;2023-12-20T08:23:00;15.27;;;4.32;;
65835;SDS011;52595;51.608;7.216;2023-12-20T08:25:25;17.70;;;4.57;;
65835;SDS011;52595;51.608;7.216;2023-12-20T08:27:52;17.63;;;5.00;;
65835;SDS011;52595;51.608;7.216;2023-12-20T08:30:17;21.73;;;4.88;;
65835;SDS011;52595;51.608;7.216;2023-12-20T08:32:45;12.27;;;4.15;;
65835;SDS011;52595;51.608;7.216;2023-12-20T08:35:11;23.05;;;5.35;;
65835;SDS011;52595;51.608;7.216;2023-12-20T08:37:36;16.10;;;4.53;;
65835;SDS011;52595;51.608;7.216;2023-12-20T08:40:02;9.63;;;3.85;;
65835;SDS011;52595;51.608;7.216;2023-12-20T08:42:27;13.00;;;4.47;;
65835;SDS011;52595;51.608;7.216;2023-12-20T08:44:56;16.95;;;4.88;;
65835;SDS011;52595;51.608;7.216;2023-12-20T08:47:23;11.25;;;3.92;;
65835;SDS011;52595;51.608;7.216;2023-12-20T08:49:48;14.65;;;4.95;;
65835;SDS011;52595;51.608;7.216;2023-12-20T08:52:14;10.00;;;3.85;;
65835;SDS011;52595;51.608;7.216;2023-12-20T08:54:39;12.93;;;4.68;;
65835;SDS011;52595;51.608;7.216;2023-12-20T08:57:04;9.88;;;3.60;;
65835;SDS011;52595;51.608;7.216;2023-12-20T08:59:31;10.13;;;4.05;;
65835;SDS011;52595;51.608;7.216;2023-12-20T09:01:57;15.77;;;4.28;;
65835;SDS011;52595;51.608;7.216;2023-12-20T09:04:22;13.88;;;3.88;;
65835;SDS011;52595;51.608;7.216;2023-12-20T09:06:48;12.55;;;3.67;;
65835;SDS011;52595;51.608;7.216;2023-12-20T09:09:13;8.60;;;3.70;;
65835;SDS011;52595;51.608;7.216;2023-12-20T09:11:41;13.48;;;4.20;;
65835;SDS011;52595;51.608;7.216;2023-12-20T09:14:07;15.10;;;3.97;;
65835;SDS011;52595;51.608;7.216;2023-12-20T09:16:32;15.10;;;5.30;;
65835;SDS011;52595;51.608;7.216;2023-12-20T09:18:58;13.20;;;4.05;;
65835;SDS011;52595;51.608;7.216;2023-12-20T09:21:23;10.32;;;3.95;;
65835;SDS011;52595;51.608;7.216;2023-12-20T09:23:49;12.05;;;3.28;;
65835;SDS011;52595;51.608;7.216;2023-12-20T09:26:14;10.82;;;4.18;;
65835;SDS011;52595;51.608;7.216;2023-12-20T09:28:39;18.52;;;4.18;;
65835;SDS011;52595;51.608;7.216;2023-12-20T09:31:05;15.00;;;4.35;;
65835;SDS011;52595;51.608;7.216;2023-12-20T09:33:32;10.48;;;3.95;;
65835;SDS011;52595;51.608;7.216;2023-12-20T09:35:58;15.25;;;3.75;;
65835;SDS011;52595;51.608;7.216;2023-12-20T09:38:23;13.30;;;3.83;;
65835;SDS011;52595;51.608;7.216;2023-12-20T09:40:49;14.10;;;3.25;;
65835;SDS011;52595;51.608;7.216;2023-12-20T09:43:14;8.10;;;3.50;;
65835;SDS011;52595;51.608;7.216;2023-12-20T09:45:45;10.98;;;3.42;;
65835;SDS011;52595;51.608;7.216;2023-12-20T09:48:11;10.93;;;3.78;;
65835;SDS011;52595;51.608;7.216;2023-12-20T09:50:40;12.40;;;3.15;;
65835;SDS011;52595;51.608;7.216;2023-12-20T09:53:05;15.15;;;3.88;;
65835;SDS011;52595;51.608;7.216;2023-12-20T09:55:34;11.05;;;3.33;;
65835;SDS011;52595;51.608;7.216;2023-12-20T09:58:01;17.73;;;3.83;;
65835;SDS011;52595;51.608;7.216;2023-12-20T10:00:26;13.15;;;3.47;;
65835;SDS011;52595;51.608;7.216;2023-12-20T10:02:59;12.90;;;4.35;;
65835;SDS011;52595;51.608;7.216;2023-12-20T10:05:28;17.55;;;3.95;;
65835;SDS011;52595;51.608;7.216;2023-12-20T10:07:55;9.05;;;3.42;;
65835;SDS011;52595;51.608;7.216;2023-12-20T10:10:20;13.85;;;4.20;;
65835;SDS011;52595;51.608;7.216;2023-12-20T10:13:05;10.75;;;3.28;;
65835;SDS011;52595;51.608;7.216;2023-12-20T10:15:33;12.07;;;3.78;;
65835;SDS011;52595;51.608;7.216;2023-12-20T10:17:59;14.20;;;3.55;;
65835;SDS011;52595;51.608;7.216;2023-12-20T10:20:25;9.48;;;3.53;;
65835;SDS011;52595;51.608;7.216;2023-12-20T10:22:51;13.80;;;4.63;;
65835;SDS011;52595;51.608;7.216;2023-12-20T10:25:18;10.27;;;3.58;;
65835;SDS011;52595;51.608;7.216;2023-12-20T10:27:45;13.50;;;4.57;;
65835;SDS011;52595;51.608;7.216;2023-12-20T10:30:10;13.15;;;4.22;;
65835;SDS011;52595;51.608;7.216;2023-12-20T10:32:36;14.23;;;4.30;;
65835;SDS011;52595;51.608;7.216;2023-12-20T10:35:01;15.57;;;3.90;;
65835;SDS011;52595;51.608;7.216;2023-12-20T10:37:27;11.63;;;3.70;;
65835;SDS011;52595;51.608;7.216;2023-12-20T10:39:53;10.27;;;3.45;;
65835;SDS011;52595;51.608;7.216;2023-12-20T10:42:22;12.45;;;3.95;;
65835;SDS011;52595;51.608;7.216;2023-12-20T10:44:51;14.63;;;4.70;;
65835;SDS011;52595;51.608;7.216;2023-12-20T10:47:16;17.60;;;4.60;;
65835;SDS011;52595;51.608;7.216;2023-12-20T10:49:42;19.52;;;5.45;;
65835;SDS011;52595;51.608;7.216;2023-12-20T10:52:09;10.13;;;3.92;;
65835;SDS011;52595;51.608;7.216;2023-12-20T10:54:36;8.63;;;3.70;;
65835;SDS011;52595;51.608;7.216;2023-12-20T10:57:02;13.23;;;4.65;;
65835;SDS011;52595;51.608;7.216;2023-12-20T10:59:32;10.85;;;3.65;;
65835;SDS011;52595;51.608;7.216;2023-12-20T11:01:58;13.05;;;3.97;;
65835;SDS011;52595;51.608;7.216;2023-12-20T11:04:44;11.95;;;3.72;;
65835;SDS011;52595;51.608;7.216;2023-12-20T11:07:23;14.13;;;4.07;;
65835;SDS011;52595;51.608;7.216;2023-12-20T11:09:58;9.63;;;3.65;;
65835;SDS011;52595;51.608;7.216;2023-12-20T11:15:42;11.82;;;3.80;;
65835;SDS011;52595;51.608;7.216;2023-12-20T11:18:08;11.40;;;3.53;;
65835;SDS011;52595;51.608;7.216;2023-12-20T11:20:38;11.35;;;3.75;;
65835;SDS011;52595;51.608;7.216;2023-12-20T11:23:05;13.38;;;3.55;;
65835;SDS011;52595;51.608;7.216;2023-12-20T11:28:22;10.93;;;3.85;;
65835;SDS011;52595;51.608;7.216;2023-12-20T11:33:15;11.98;;;3.95;;
65835;SDS011;52595;51.608;7.216;2023-12-20T11:35:42;12.73;;;4.07;;
65835;SDS011;52595;51.608;7.216;2023-12-20T11:38:10;10.75;;;3.92;;
65835;SDS011;52595;51.608;7.216;2023-12-20T11:40:36;11.88;;;4.18;;
65835;SDS011;52595;51.608;7.216;2023-12-20T11:43:02;10.50;;;4.35;;
65835;SDS011;52595;51.608;7.216;2023-12-20T11:45:29;9.57;;;3.80;;
65835;SDS011;52595;51.608;7.216;2023-12-20T11:47:56;10.45;;;4.28;;
65835;SDS011;52595;51.608;7.216;2023-12-20T11:50:22;10.45;;;4.43;;
65835;SDS011;52595;51.608;7.216;2023-12-20T11:52:49;13.85;;;4.35;;
65835;SDS011;52595;51.608;7.216;2023-12-20T11:55:17;10.88;;;4.15;;
65835;SDS011;52595;51.608;7.216;2023-12-20T11:57:43;19.95;;;5.90;;
65835;SDS011;52595;51.608;7.216;2023-12-20T12:00:10;10.00;;;4.68;;
65835;SDS011;52595;51.608;7.216;2023-12-20T12:02:35;15.10;;;4.95;;
65835;SDS011;52595;51.608;7.216;2023-12-20T12:05:01;16.02;;;5.65;;
65835;SDS011;52595;51.608;7.216;2023-12-20T12:07:27;21.50;;;6.28;;
65835;SDS011;52595;51.608;7.216;2023-12-20T12:09:52;17.52;;;5.18;;
65835;SDS011;52595;51.608;7.216;2023-12-20T12:12:18;11.93;;;4.88;;
65835;SDS011;52595;51.608;7.216;2023-12-20T12:14:44;12.50;;;5.15;;
65835;SDS011;52595;51.608;7.216;2023-12-20T12:17:11;12.90;;;5.30;;
65835;SDS011;52595;51.608;7.216;2023-12-20T12:19:42;18.00;;;7.10;;
65835;SDS011;52595;51.608;7.216;2023-12-20T12:22:09;9.40;;;5.20;;
65835;SDS011;52595;51.608;7.216;2023-12-20T12:24:48;11.43;;;4.88;;
65835;SDS011;52595;51.608;7.216;2023-12-20T12:27:14;15.73;;;6.82;;
65835;SDS011;52595;51.608;7.216;2023-12-20T12:29:41;19.52;;;6.20;;
65835;SDS011;52595;51.608;7.216;2023-12-20T12:32:25;19.88;;;7.35;;
65835;SDS011;52595;51.608;7.216;2023-12-20T12:34:51;19.23;;;6.80;;
65835;SDS011;52595;51.608;7.216;2023-12-20T12:37:16;20.23;;;7.35;;
65835;SDS011;52595;51.608;7.216;2023-12-20T12:39:42;26.73;;;6.72;;
65835;SDS011;52595;51.608;7.216;2023-12-20T12:42:07;18.80;;;7.63;;
65835;SDS011;52595;51.608;7.216;2023-12-20T12:44:32;17.83;;;7.88;;
65835;SDS011;52595;51.608;7.216;2023-12-20T12:46:58;21.77;;;7.20;;
65835;SDS011;52595;51.608;7.216;2023-12-20T12:49:23;12.65;;;5.43;;
65835;SDS011;52595;51.608;7.216;2023-12-20T12:51:48;22.92;;;6.55;;
65835;SDS011;52595;51.608;7.216;2023-12-20T12:54:14;13.60;;;6.55;;
65835;SDS011;52595;51.608;7.216;2023-12-20T12:56:41;21.35;;;6.82;;
65835;SDS011;52595;51.608;7.216;2023-12-20T12:59:07;15.27;;;6.38;;
65835;SDS011;52595;51.608;7.216;2023-12-20T13:01:33;22.50;;;5.85;;
65835;SDS011;52595;51.608;7.216;2023-12-20T13:03:58;12.70;;;5.85;;
65835;SDS011;52595;51.608;7.216;2023-12-20T13:06:26;14.55;;;5.00;;
65835;SDS011;52595;51.608;7.216;2023-12-20T13:08:52;10.82;;;4.75;;
65835;SDS011;52595;51.608;7.216;2023-12-20T13:11:17;17.17;;;6.18;;
65835;SDS011;52595;51.608;7.216;2023-12-20T13:13:42;18.65;;;6.53;;
65835;SDS011;52595;51.608;7.216;2023-12-20T13:16:08;18.10;;;5.70;;
65835;SDS011;52595;51.608;7.216;2023-12-20T13:18:33;11.75;;;4.70;;
65835;SDS011;52595;51.608;7.216;2023-12-20T13:20:59;19.38;;;6.47;;
65835;SDS011;52595;51.608;7.216;2023-12-20T13:23:24;15.23;;;6.30;;
65835;SDS011;52595;51.608;7.216;2023-12-20T13:25:49;18.92;;;5.78;;
65835;SDS011;52595;51.608;7.216;2023-12-20T13:28:15;14.85;;;5.20;;
65835;SDS011;52595;51.608;7.216;2023-12-20T13:30:40;16.95;;;6.18;;
65835;SDS011;52595;51.608;7.216;2023-12-20T13:33:06;15.40;;;7.07;;
65835;SDS011;52595;51.608;7.216;2023-12-20T13:35:32;20.33;;;7.18;;
65835;SDS011;52595;51.608;7.216;2023-12-20T13:37:58;19.35;;;6.72;;
65835;SDS011;52595;51.608;7.216;2023-12-20T13:40:24;13.70;;;5.13;;
65835;SDS011;52595;51.608;7.216;2023-12-20T13:42:49;21.35;;;7.88;;
65835;SDS011;52595;51.608;7.216;2023-12-20T13:45:15;15.50;;;7.07;;
65835;SDS011;52595;51.608;7.216;2023-12-20T13:47:40;20.08;;;7.57;;
65835;SDS011;52595;51.608;7.216;2023-12-20T13:50:05;14.60;;;6.72;;
65835;SDS011;52595;51.608;7.216;2023-12-20T13:52:31;13.60;;;6.80;;
65835;SDS011;52595;51.608;7.216;2023-12-20T13:54:57;10.68;;;5.43;;
65835;SDS011;52595;51.608;7.216;2023-12-20T13:57:22;20.45;;;7.72;;
65835;SDS011;52595;51.608;7.216;2023-12-20T13:59:47;15.35;;;7.40;;
65835;SDS011;52595;51.608;7.216;2023-12-20T14:02:13;12.98;;;6.40;;
65835;SDS011;52595;51.608;7.216;2023-12-20T14:04:38;16.00;;;8.20;;
65835;SDS011;52595;51.608;7.216;2023-12-20T14:07:04;18.73;;;8.40;;
65835;SDS011;52595;51.608;7.216;2023-12-20T14:09:30;20.65;;;6.95;;
65835;SDS011;52595;51.608;7.216;2023-12-20T14:11:55;15.55;;;7.93;;
65835;SDS011;52595;51.608;7.216;2023-12-20T14:14:20;21.30;;;8.40;;
65835;SDS011;52595;51.608;7.216;2023-12-20T14:16:46;25.83;;;9.13;;
65835;SDS011;52595;51.608;7.216;2023-12-20T14:19:11;24.67;;;9.18;;
65835;SDS011;52595;51.608;7.216;2023-12-20T14:21:37;16.17;;;7.60;;
65835;SDS011;52595;51.608;7.216;2023-12-20T14:24:02;24.15;;;10.45;;
65835;SDS011;52595;51.608;7.216;2023-12-20T14:26:29;14.05;;;7.90;;
65835;SDS011;52595;51.608;7.216;2023-12-20T14:28:55;19.85;;;9.10;;
65835;SDS011;52595;51.608;7.216;2023-12-20T14:31:20;27.60;;;9.10;;
65835;SDS011;52595;51.608;7.216;2023-12-20T14:33:47;20.23;;;10.50;;
65835;SDS011;52595;51.608;7.216;2023-12-20T14:36:14;25.67;;;11.70;;
65835;SDS011;52595;51.608;7.216;2023-12-20T14:38:39;17.23;;;9.48;;